sensor_id;sensor_type;location;lat;lon;timestamp;temperature;humidity
44461;DHT22;30162;53.642;10.640;2023-04-28T00:01:41;8.10;83.30
44461;DHT22;30162;53.642;10.640;2023-04-28T00:04:07;8.20;84.10
44461;DHT22;30162;53.642;10.640;2023-04-28T00:06:32;8.20;83.70
44461;DHT22;30162;53.642;10.640;2023-04-28T00:08:58;8.20;82.60
44461;DHT22;30162;53.642;10.640;2023-04-28T00:11:24;8.10;83.80
44461;DHT22;30162;53.642;10.640;2023-04-28T00:13:49;8.10;83.40
44461;DHT22;30162;53.642;10.640;2023-04-28T00:16:16;8.10;83.50
44461;DHT22;30162;53.642;10.640;2023-04-28T00:18:41;8.10;83.50
44461;DHT22;30162;53.642;10.640;2023-04-28T00:21:07;8.00;83.80
44461;DHT22;30162;53.642;10.640;2023-04-28T00:23:32;7.90;85.20
44461;DHT22;30162;53.642;10.640;2023-04-28T00:25:58;7.90;85.60
44461;DHT22;30162;53.642;10.640;2023-04-28T00:28:24;8.00;86.00
44461;DHT22;30162;53.642;10.640;2023-04-28T00:30:49;8.00;85.90
44461;DHT22;30162;53.642;10.640;2023-04-28T00:33:15;8.00;85.90
44461;DHT22;30162;53.642;10.640;2023-04-28T00:35:40;7.90;86.20
44461;DHT22;30162;53.642;10.640;2023-04-28T00:38:06;8.10;86.00
44461;DHT22;30162;53.642;10.640;2023-04-28T00:40:36;8.00;85.80
44461;DHT22;30162;53.642;10.640;2023-04-28T00:43:02;8.00;85.90
44461;DHT22;30162;53.642;10.640;2023-04-28T00:45:28;7.90;86.20
44461;DHT22;30162;53.642;10.640;2023-04-28T00:47:54;8.00;86.10
44461;DHT22;30162;53.642;10.640;2023-04-28T00:50:21;7.90;86.20
44461;DHT22;30162;53.642;10.640;2023-04-28T00:52:47;7.90;86.60
44461;DHT22;30162;53.642;10.640;2023-04-28T00:55:14;8.10;86.30
44461;DHT22;30162;53.642;10.640;2023-04-28T00:57:41;8.10;85.90
44461;DHT22;30162;53.642;10.640;2023-04-28T01:00:07;8.10;86.10
44461;DHT22;30162;53.642;10.640;2023-04-28T01:02:34;8.10;87.10
44461;DHT22;30162;53.642;10.640;2023-04-28T01:05:01;8.20;86.90
44461;DHT22;30162;53.642;10.640;2023-04-28T01:07:26;8.30;85.50
44461;DHT22;30162;53.642;10.640;2023-04-28T01:09:53;8.30;85.70
44461;DHT22;30162;53.642;10.640;2023-04-28T01:12:18;8.30;85.40
44461;DHT22;30162;53.642;10.640;2023-04-28T01:14:44;8.20;85.60
44461;DHT22;30162;53.642;10.640;2023-04-28T01:17:10;8.30;85.90
44461;DHT22;30162;53.642;10.640;2023-04-28T01:19:36;8.30;85.60
44461;DHT22;30162;53.642;10.640;2023-04-28T01:22:02;8.30;85.50
44461;DHT22;30162;53.642;10.640;2023-04-28T01:24:27;8.40;85.10
44461;DHT22;30162;53.642;10.640;2023-04-28T01:26:53;8.30;85.40
44461;DHT22;30162;53.642;10.640;2023-04-28T01:29:18;8.30;85.10
44461;DHT22;30162;53.642;10.640;2023-04-28T01:31:44;8.20;85.50
44461;DHT22;30162;53.642;10.640;2023-04-28T01:34:09;8.00;85.70
44461;DHT22;30162;53.642;10.640;2023-04-28T01:36:35;8.00;86.30
44461;DHT22;30162;53.642;10.640;2023-04-28T01:39:01;7.90;85.90
44461;DHT22;30162;53.642;10.640;2023-04-28T01:41:26;7.90;85.80
44461;DHT22;30162;53.642;10.640;2023-04-28T01:43:52;8.00;85.60
44461;DHT22;30162;53.642;10.640;2023-04-28T01:46:17;8.00;85.50
44461;DHT22;30162;53.642;10.640;2023-04-28T01:48:43;8.00;85.50
44461;DHT22;30162;53.642;10.640;2023-04-28T01:51:08;7.90;85.50
44461;DHT22;30162;53.642;10.640;2023-04-28T01:53:34;7.80;85.80
44461;DHT22;30162;53.642;10.640;2023-04-28T01:56:00;7.80;86.10
44461;DHT22;30162;53.642;10.640;2023-04-28T01:58:25;7.80;85.70
44461;DHT22;30162;53.642;10.640;2023-04-28T02:00:51;7.70;87.10
44461;DHT22;30162;53.642;10.640;2023-04-28T02:03:16;7.80;86.40
44461;DHT22;30162;53.642;10.640;2023-04-28T02:05:42;7.90;86.20
44461;DHT22;30162;53.642;10.640;2023-04-28T02:08:07;7.90;85.60
44461;DHT22;30162;53.642;10.640;2023-04-28T02:10:33;7.90;85.60
44461;DHT22;30162;53.642;10.640;2023-04-28T02:12:58;7.80;85.80
44461;DHT22;30162;53.642;10.640;2023-04-28T02:15:24;7.90;85.40
44461;DHT22;30162;53.642;10.640;2023-04-28T02:17:49;7.70;85.20
44461;DHT22;30162;53.642;10.640;2023-04-28T02:20:15;7.80;85.80
44461;DHT22;30162;53.642;10.640;2023-04-28T02:22:40;7.90;85.20
44461;DHT22;30162;53.642;10.640;2023-04-28T02:25:07;7.90;84.50
44461;DHT22;30162;53.642;10.640;2023-04-28T02:27:34;7.90;84.50
44461;DHT22;30162;53.642;10.640;2023-04-28T02:30:01;7.80;83.80
44461;DHT22;30162;53.642;10.640;2023-04-28T02:32:27;7.80;83.90
44461;DHT22;30162;53.642;10.640;2023-04-28T02:34:53;7.80;83.60
44461;DHT22;30162;53.642;10.640;2023-04-28T02:37:19;7.70;83.60
44461;DHT22;30162;53.642;10.640;2023-04-28T02:39:45;7.50;83.50
44461;DHT22;30162;53.642;10.640;2023-04-28T02:42:11;7.40;83.80
44461;DHT22;30162;53.642;10.640;2023-04-28T02:44:36;7.30;84.20
44461;DHT22;30162;53.642;10.640;2023-04-28T02:47:02;7.20;84.80
44461;DHT22;30162;53.642;10.640;2023-04-28T02:49:28;7.20;85.60
44461;DHT22;30162;53.642;10.640;2023-04-28T02:51:53;7.20;85.20
44461;DHT22;30162;53.642;10.640;2023-04-28T02:54:19;7.00;85.60
44461;DHT22;30162;53.642;10.640;2023-04-28T02:56:52;7.20;85.70
44461;DHT22;30162;53.642;10.640;2023-04-28T02:59:18;7.10;85.30
44461;DHT22;30162;53.642;10.640;2023-04-28T03:01:44;7.10;85.90
44461;DHT22;30162;53.642;10.640;2023-04-28T03:04:10;6.90;85.80
44461;DHT22;30162;53.642;10.640;2023-04-28T03:06:35;7.00;86.50
44461;DHT22;30162;53.642;10.640;2023-04-28T03:09:01;7.10;86.60
44461;DHT22;30162;53.642;10.640;2023-04-28T03:11:26;7.10;85.80
44461;DHT22;30162;53.642;10.640;2023-04-28T03:13:52;7.10;86.20
44461;DHT22;30162;53.642;10.640;2023-04-28T03:16:17;7.00;86.90
44461;DHT22;30162;53.642;10.640;2023-04-28T03:18:43;7.10;86.60
44461;DHT22;30162;53.642;10.640;2023-04-28T03:21:08;7.10;87.10
44461;DHT22;30162;53.642;10.640;2023-04-28T03:23:34;7.30;86.80
44461;DHT22;30162;53.642;10.640;2023-04-28T03:25:59;7.50;86.20
44461;DHT22;30162;53.642;10.640;2023-04-28T03:28:25;7.60;85.20
44461;DHT22;30162;53.642;10.640;2023-04-28T03:30:51;7.40;85.10
44461;DHT22;30162;53.642;10.640;2023-04-28T03:33:16;7.30;85.20
44461;DHT22;30162;53.642;10.640;2023-04-28T03:35:42;7.30;85.30
44461;DHT22;30162;53.642;10.640;2023-04-28T03:38:07;7.50;84.80
44461;DHT22;30162;53.642;10.640;2023-04-28T03:40:33;7.50;85.10
44461;DHT22;30162;53.642;10.640;2023-04-28T03:42:58;7.40;85.20
44461;DHT22;30162;53.642;10.640;2023-04-28T03:45:24;7.30;85.60
44461;DHT22;30162;53.642;10.640;2023-04-28T03:47:49;7.50;85.60
44461;DHT22;30162;53.642;10.640;2023-04-28T03:50:15;7.50;85.40
44461;DHT22;30162;53.642;10.640;2023-04-28T03:52:41;7.50;85.60
44461;DHT22;30162;53.642;10.640;2023-04-28T03:55:06;7.50;85.10
44461;DHT22;30162;53.642;10.640;2023-04-28T03:57:32;7.60;84.90
44461;DHT22;30162;53.642;10.640;2023-04-28T03:59:58;7.70;85.00
44461;DHT22;30162;53.642;10.640;2023-04-28T04:02:23;7.80;84.50
44461;DHT22;30162;53.642;10.640;2023-04-28T04:04:49;7.80;84.20
44461;DHT22;30162;53.642;10.640;2023-04-28T04:07:14;7.90;84.30
44461;DHT22;30162;53.642;10.640;2023-04-28T04:09:40;7.80;84.30
44461;DHT22;30162;53.642;10.640;2023-04-28T04:12:06;7.80;84.00
44461;DHT22;30162;53.642;10.640;2023-04-28T04:14:32;7.80;84.00
44461;DHT22;30162;53.642;10.640;2023-04-28T04:16:57;7.90;84.10
44461;DHT22;30162;53.642;10.640;2023-04-28T04:19:23;8.00;83.90
44461;DHT22;30162;53.642;10.640;2023-04-28T04:21:51;8.00;83.90
44461;DHT22;30162;53.642;10.640;2023-04-28T04:24:16;8.00;84.10
44461;DHT22;30162;53.642;10.640;2023-04-28T04:26:42;8.00;84.40
44461;DHT22;30162;53.642;10.640;2023-04-28T04:29:08;8.00;83.90
44461;DHT22;30162;53.642;10.640;2023-04-28T04:31:33;8.00;83.90
44461;DHT22;30162;53.642;10.640;2023-04-28T04:33:59;8.20;84.10
44461;DHT22;30162;53.642;10.640;2023-04-28T04:36:24;8.30;83.60
44461;DHT22;30162;53.642;10.640;2023-04-28T04:38:50;8.40;83.20
44461;DHT22;30162;53.642;10.640;2023-04-28T04:41:17;8.50;83.10
44461;DHT22;30162;53.642;10.640;2023-04-28T04:43:45;8.40;84.20
44461;DHT22;30162;53.642;10.640;2023-04-28T04:46:10;8.40;84.00
44461;DHT22;30162;53.642;10.640;2023-04-28T04:48:36;8.60;83.50
44461;DHT22;30162;53.642;10.640;2023-04-28T04:51:01;8.50;83.10
44461;DHT22;30162;53.642;10.640;2023-04-28T04:53:27;8.60;82.60
44461;DHT22;30162;53.642;10.640;2023-04-28T04:55:52;8.80;82.80
44461;DHT22;30162;53.642;10.640;2023-04-28T04:58:18;9.00;82.50
44461;DHT22;30162;53.642;10.640;2023-04-28T05:00:44;9.10;81.90
44461;DHT22;30162;53.642;10.640;2023-04-28T05:03:09;9.20;81.40
44461;DHT22;30162;53.642;10.640;2023-04-28T05:05:36;9.30;81.20
44461;DHT22;30162;53.642;10.640;2023-04-28T05:08:01;9.50;80.70
44461;DHT22;30162;53.642;10.640;2023-04-28T05:10:27;9.60;80.30
44461;DHT22;30162;53.642;10.640;2023-04-28T05:12:52;9.60;80.10
44461;DHT22;30162;53.642;10.640;2023-04-28T05:15:18;9.80;79.10
44461;DHT22;30162;53.642;10.640;2023-04-28T05:17:44;9.90;78.50
44461;DHT22;30162;53.642;10.640;2023-04-28T05:20:09;10.00;78.60
44461;DHT22;30162;53.642;10.640;2023-04-28T05:22:35;10.00;78.70
44461;DHT22;30162;53.642;10.640;2023-04-28T05:25:01;9.90;78.50
44461;DHT22;30162;53.642;10.640;2023-04-28T05:27:26;10.20;78.50
44461;DHT22;30162;53.642;10.640;2023-04-28T05:29:52;10.20;78.30
44461;DHT22;30162;53.642;10.640;2023-04-28T05:32:17;10.30;77.60
44461;DHT22;30162;53.642;10.640;2023-04-28T05:34:43;10.50;77.30
44461;DHT22;30162;53.642;10.640;2023-04-28T05:37:08;10.80;76.70
44461;DHT22;30162;53.642;10.640;2023-04-28T05:39:34;10.90;75.80
44461;DHT22;30162;53.642;10.640;2023-04-28T05:41:59;10.60;76.10
44461;DHT22;30162;53.642;10.640;2023-04-28T05:44:25;10.80;75.80
44461;DHT22;30162;53.642;10.640;2023-04-28T05:46:50;10.80;75.10
44461;DHT22;30162;53.642;10.640;2023-04-28T05:49:16;10.90;76.20
44461;DHT22;30162;53.642;10.640;2023-04-28T05:51:41;11.20;76.70
44461;DHT22;30162;53.642;10.640;2023-04-28T05:54:07;11.60;74.20
44461;DHT22;30162;53.642;10.640;2023-04-28T05:56:32;11.50;73.80
44461;DHT22;30162;53.642;10.640;2023-04-28T05:58:58;11.70;72.90
44461;DHT22;30162;53.642;10.640;2023-04-28T06:01:26;11.80;72.60
44461;DHT22;30162;53.642;10.640;2023-04-28T06:03:51;12.10;72.40
44461;DHT22;30162;53.642;10.640;2023-04-28T06:06:18;12.30;71.90
44461;DHT22;30162;53.642;10.640;2023-04-28T06:08:43;12.40;71.60
44461;DHT22;30162;53.642;10.640;2023-04-28T06:11:10;12.50;70.90
44461;DHT22;30162;53.642;10.640;2023-04-28T06:13:36;12.70;70.50
44461;DHT22;30162;53.642;10.640;2023-04-28T06:16:02;13.00;70.20
44461;DHT22;30162;53.642;10.640;2023-04-28T06:18:28;13.10;70.60
44461;DHT22;30162;53.642;10.640;2023-04-28T06:20:56;13.40;68.70
44461;DHT22;30162;53.642;10.640;2023-04-28T06:23:22;13.20;68.60
44461;DHT22;30162;53.642;10.640;2023-04-28T06:25:47;13.20;68.50
44461;DHT22;30162;53.642;10.640;2023-04-28T06:28:13;13.30;67.80
44461;DHT22;30162;53.642;10.640;2023-04-28T06:30:39;13.10;68.30
44461;DHT22;30162;53.642;10.640;2023-04-28T06:33:05;13.00;67.60
44461;DHT22;30162;53.642;10.640;2023-04-28T06:35:31;12.90;67.70
44461;DHT22;30162;53.642;10.640;2023-04-28T06:37:59;13.20;66.20
44461;DHT22;30162;53.642;10.640;2023-04-28T06:40:26;13.40;67.50
44461;DHT22;30162;53.642;10.640;2023-04-28T06:42:52;13.70;66.90
44461;DHT22;30162;53.642;10.640;2023-04-28T06:45:17;14.20;65.80
44461;DHT22;30162;53.642;10.640;2023-04-28T06:47:43;14.70;65.80
44461;DHT22;30162;53.642;10.640;2023-04-28T06:50:09;15.00;63.50
44461;DHT22;30162;53.642;10.640;2023-04-28T06:52:34;15.20;62.10
44461;DHT22;30162;53.642;10.640;2023-04-28T06:55:00;15.20;61.40
44461;DHT22;30162;53.642;10.640;2023-04-28T06:57:26;15.00;62.40
44461;DHT22;30162;53.642;10.640;2023-04-28T06:59:51;15.30;62.30
44461;DHT22;30162;53.642;10.640;2023-04-28T07:02:17;15.30;61.00
44461;DHT22;30162;53.642;10.640;2023-04-28T07:04:42;15.60;61.20
44461;DHT22;30162;53.642;10.640;2023-04-28T07:07:08;15.30;60.80
44461;DHT22;30162;53.642;10.640;2023-04-28T07:09:34;15.10;60.30
44461;DHT22;30162;53.642;10.640;2023-04-28T07:12:01;14.40;60.00
44461;DHT22;30162;53.642;10.640;2023-04-28T07:14:26;14.60;61.50
44461;DHT22;30162;53.642;10.640;2023-04-28T07:16:52;14.40;60.10
44461;DHT22;30162;53.642;10.640;2023-04-28T07:19:17;14.50;61.40
44461;DHT22;30162;53.642;10.640;2023-04-28T07:21:43;14.50;59.50
44461;DHT22;30162;53.642;10.640;2023-04-28T07:24:09;14.50;60.50
44461;DHT22;30162;53.642;10.640;2023-04-28T07:26:34;14.40;59.90
44461;DHT22;30162;53.642;10.640;2023-04-28T07:29:01;14.80;60.10
44461;DHT22;30162;53.642;10.640;2023-04-28T07:31:26;15.10;58.70
44461;DHT22;30162;53.642;10.640;2023-04-28T07:33:53;14.80;59.10
44461;DHT22;30162;53.642;10.640;2023-04-28T07:36:19;14.20;59.60
44461;DHT22;30162;53.642;10.640;2023-04-28T07:38:45;14.80;60.10
44461;DHT22;30162;53.642;10.640;2023-04-28T07:41:10;15.30;60.00
44461;DHT22;30162;53.642;10.640;2023-04-28T07:43:36;15.80;58.40
44461;DHT22;30162;53.642;10.640;2023-04-28T07:46:02;16.10;58.50
44461;DHT22;30162;53.642;10.640;2023-04-28T07:48:28;15.40;57.20
44461;DHT22;30162;53.642;10.640;2023-04-28T07:50:53;15.00;57.40
44461;DHT22;30162;53.642;10.640;2023-04-28T07:53:19;15.20;58.90
44461;DHT22;30162;53.642;10.640;2023-04-28T07:55:44;15.10;58.90
44461;DHT22;30162;53.642;10.640;2023-04-28T07:58:11;15.50;58.80
44461;DHT22;30162;53.642;10.640;2023-04-28T08:00:37;15.90;58.60
44461;DHT22;30162;53.642;10.640;2023-04-28T08:03:02;16.30;58.40
44461;DHT22;30162;53.642;10.640;2023-04-28T08:05:28;16.30;57.60
44461;DHT22;30162;53.642;10.640;2023-04-28T08:07:53;16.30;57.80
44461;DHT22;30162;53.642;10.640;2023-04-28T08:10:19;16.60;56.40
44461;DHT22;30162;53.642;10.640;2023-04-28T08:12:45;17.00;57.20
44461;DHT22;30162;53.642;10.640;2023-04-28T08:15:11;16.60;58.50
44461;DHT22;30162;53.642;10.640;2023-04-28T08:17:37;16.80;56.40
44461;DHT22;30162;53.642;10.640;2023-04-28T08:20:03;16.50;55.80
44461;DHT22;30162;53.642;10.640;2023-04-28T08:22:30;16.40;55.00
44461;DHT22;30162;53.642;10.640;2023-04-28T08:24:55;16.00;55.20
44461;DHT22;30162;53.642;10.640;2023-04-28T08:27:21;16.40;55.50
44461;DHT22;30162;53.642;10.640;2023-04-28T08:29:48;16.70;55.40
44461;DHT22;30162;53.642;10.640;2023-04-28T08:32:13;16.50;53.70
44461;DHT22;30162;53.642;10.640;2023-04-28T08:34:39;16.60;54.90
44461;DHT22;30162;53.642;10.640;2023-04-28T08:37:05;16.10;55.10
44461;DHT22;30162;53.642;10.640;2023-04-28T08:39:31;16.70;56.70
44461;DHT22;30162;53.642;10.640;2023-04-28T08:41:58;17.00;55.00
44461;DHT22;30162;53.642;10.640;2023-04-28T08:44:24;17.70;55.40
44461;DHT22;30162;53.642;10.640;2023-04-28T08:46:53;17.70;52.70
44461;DHT22;30162;53.642;10.640;2023-04-28T08:49:22;17.50;55.20
44461;DHT22;30162;53.642;10.640;2023-04-28T08:51:56;16.90;56.70
44461;DHT22;30162;53.642;10.640;2023-04-28T08:54:29;17.50;55.90
44461;DHT22;30162;53.642;10.640;2023-04-28T08:56:56;17.90;54.40
44461;DHT22;30162;53.642;10.640;2023-04-28T08:59:21;17.80;53.40
44461;DHT22;30162;53.642;10.640;2023-04-28T09:01:50;18.10;53.40
44461;DHT22;30162;53.642;10.640;2023-04-28T09:04:16;18.00;54.20
44461;DHT22;30162;53.642;10.640;2023-04-28T09:06:42;18.10;53.40
44461;DHT22;30162;53.642;10.640;2023-04-28T09:09:28;18.30;54.60
44461;DHT22;30162;53.642;10.640;2023-04-28T09:11:58;18.40;53.70
44461;DHT22;30162;53.642;10.640;2023-04-28T09:14:25;18.50;53.10
44461;DHT22;30162;53.642;10.640;2023-04-28T09:16:51;17.60;52.40
44461;DHT22;30162;53.642;10.640;2023-04-28T09:19:17;17.10;53.80
44461;DHT22;30162;53.642;10.640;2023-04-28T09:22:01;17.30;54.50
44461;DHT22;30162;53.642;10.640;2023-04-28T09:24:39;17.60;54.20
44461;DHT22;30162;53.642;10.640;2023-04-28T09:27:06;17.60;53.20
44461;DHT22;30162;53.642;10.640;2023-04-28T09:29:35;17.90;54.70
44461;DHT22;30162;53.642;10.640;2023-04-28T09:32:12;18.10;54.30
44461;DHT22;30162;53.642;10.640;2023-04-28T09:34:46;18.00;53.50
44461;DHT22;30162;53.642;10.640;2023-04-28T09:37:16;17.90;54.10
44461;DHT22;30162;53.642;10.640;2023-04-28T09:39:50;18.10;54.70
44461;DHT22;30162;53.642;10.640;2023-04-28T09:42:48;18.50;54.70
44461;DHT22;30162;53.642;10.640;2023-04-28T09:45:15;18.30;53.60
44461;DHT22;30162;53.642;10.640;2023-04-28T09:47:45;18.30;53.60
44461;DHT22;30162;53.642;10.640;2023-04-28T09:50:13;17.70;54.00
44461;DHT22;30162;53.642;10.640;2023-04-28T09:52:43;17.40;54.70
44461;DHT22;30162;53.642;10.640;2023-04-28T09:55:11;17.60;53.90
44461;DHT22;30162;53.642;10.640;2023-04-28T09:57:38;16.70;53.50
44461;DHT22;30162;53.642;10.640;2023-04-28T10:00:05;16.90;54.40
44461;DHT22;30162;53.642;10.640;2023-04-28T10:02:34;17.40;55.40
44461;DHT22;30162;53.642;10.640;2023-04-28T10:05:00;18.10;54.00
44461;DHT22;30162;53.642;10.640;2023-04-28T10:07:27;17.90;53.70
44461;DHT22;30162;53.642;10.640;2023-04-28T10:09:55;18.00;54.90
44461;DHT22;30162;53.642;10.640;2023-04-28T10:12:22;18.40;55.20
44461;DHT22;30162;53.642;10.640;2023-04-28T10:14:49;18.70;54.80
44461;DHT22;30162;53.642;10.640;2023-04-28T10:17:19;19.20;53.20
44461;DHT22;30162;53.642;10.640;2023-04-28T10:19:46;19.20;52.00
44461;DHT22;30162;53.642;10.640;2023-04-28T10:27:44;18.00;56.40
44461;DHT22;30162;53.642;10.640;2023-04-28T10:30:15;18.60;53.60
44461;DHT22;30162;53.642;10.640;2023-04-28T10:32:41;19.00;52.40
44461;DHT22;30162;53.642;10.640;2023-04-28T10:40:55;18.90;53.60
44461;DHT22;30162;53.642;10.640;2023-04-28T10:43:36;19.00;52.60
44461;DHT22;30162;53.642;10.640;2023-04-28T10:46:07;18.90;53.90
44461;DHT22;30162;53.642;10.640;2023-04-28T10:58:45;17.90;53.30
44461;DHT22;30162;53.642;10.640;2023-04-28T11:06:33;18.40;53.40
44461;DHT22;30162;53.642;10.640;2023-04-28T11:09:01;18.20;52.50
44461;DHT22;30162;53.642;10.640;2023-04-28T11:11:28;17.50;53.70
44461;DHT22;30162;53.642;10.640;2023-04-28T11:14:39;17.20;53.00
44461;DHT22;30162;53.642;10.640;2023-04-28T11:16:54;17.40;54.30
44461;DHT22;30162;53.642;10.640;2023-04-28T11:19:22;17.30;53.50
44461;DHT22;30162;53.642;10.640;2023-04-28T11:21:49;17.20;54.00
44461;DHT22;30162;53.642;10.640;2023-04-28T11:24:15;17.50;54.40
44461;DHT22;30162;53.642;10.640;2023-04-28T11:26:42;17.80;53.90
44461;DHT22;30162;53.642;10.640;2023-04-28T11:29:08;18.10;53.40
44461;DHT22;30162;53.642;10.640;2023-04-28T11:31:34;18.50;53.40
44461;DHT22;30162;53.642;10.640;2023-04-28T11:34:10;18.30;54.40
44461;DHT22;30162;53.642;10.640;2023-04-28T11:36:39;18.30;54.00
44461;DHT22;30162;53.642;10.640;2023-04-28T11:39:07;18.80;54.30
44461;DHT22;30162;53.642;10.640;2023-04-28T11:41:37;19.00;54.20
44461;DHT22;30162;53.642;10.640;2023-04-28T11:44:14;18.80;53.10
44461;DHT22;30162;53.642;10.640;2023-04-28T11:46:48;19.00;53.50
44461;DHT22;30162;53.642;10.640;2023-04-28T11:49:21;18.80;52.80
44461;DHT22;30162;53.642;10.640;2023-04-28T11:51:51;18.70;53.00
44461;DHT22;30162;53.642;10.640;2023-04-28T11:54:22;18.30;53.50
44461;DHT22;30162;53.642;10.640;2023-04-28T11:56:48;18.40;53.60
44461;DHT22;30162;53.642;10.640;2023-04-28T11:59:13;19.00;52.60
44461;DHT22;30162;53.642;10.640;2023-04-28T12:01:50;19.20;52.70
44461;DHT22;30162;53.642;10.640;2023-04-28T12:04:39;19.20;52.60
44461;DHT22;30162;53.642;10.640;2023-04-28T12:09:39;18.30;54.30
44461;DHT22;30162;53.642;10.640;2023-04-28T12:12:26;18.00;54.40
44461;DHT22;30162;53.642;10.640;2023-04-28T12:15:04;18.40;54.30
44461;DHT22;30162;53.642;10.640;2023-04-28T12:17:36;18.90;53.40
44461;DHT22;30162;53.642;10.640;2023-04-28T12:20:05;18.80;53.30
44461;DHT22;30162;53.642;10.640;2023-04-28T12:22:46;18.30;52.80
44461;DHT22;30162;53.642;10.640;2023-04-28T12:25:13;18.40;54.90
44461;DHT22;30162;53.642;10.640;2023-04-28T12:27:40;18.80;54.30
44461;DHT22;30162;53.642;10.640;2023-04-28T12:32:45;19.40;54.90
44461;DHT22;30162;53.642;10.640;2023-04-28T12:35:11;19.20;55.20
44461;DHT22;30162;53.642;10.640;2023-04-28T12:37:37;19.60;54.70
44461;DHT22;30162;53.642;10.640;2023-04-28T12:40:05;19.70;53.40
44461;DHT22;30162;53.642;10.640;2023-04-28T12:42:31;19.40;53.40
44461;DHT22;30162;53.642;10.640;2023-04-28T12:44:56;19.10;53.20
44461;DHT22;30162;53.642;10.640;2023-04-28T12:47:23;19.20;54.00
44461;DHT22;30162;53.642;10.640;2023-04-28T12:49:48;19.50;54.60
44461;DHT22;30162;53.642;10.640;2023-04-28T12:52:20;19.70;53.30
44461;DHT22;30162;53.642;10.640;2023-04-28T12:54:46;19.70;53.50
44461;DHT22;30162;53.642;10.640;2023-04-28T12:57:15;19.70;53.20
44461;DHT22;30162;53.642;10.640;2023-04-28T12:59:45;19.40;53.40
44461;DHT22;30162;53.642;10.640;2023-04-28T13:02:12;19.20;54.20
44461;DHT22;30162;53.642;10.640;2023-04-28T13:04:39;19.20;54.10
44461;DHT22;30162;53.642;10.640;2023-04-28T13:07:04;19.00;55.30
44461;DHT22;30162;53.642;10.640;2023-04-28T13:09:31;19.20;54.40
44461;DHT22;30162;53.642;10.640;2023-04-28T13:11:57;19.30;54.20
44461;DHT22;30162;53.642;10.640;2023-04-28T13:14:25;18.90;53.80
44461;DHT22;30162;53.642;10.640;2023-04-28T13:16:52;18.50;54.10
44461;DHT22;30162;53.642;10.640;2023-04-28T13:19:17;18.30;54.20
44461;DHT22;30162;53.642;10.640;2023-04-28T13:21:43;18.40;55.70
44461;DHT22;30162;53.642;10.640;2023-04-28T13:24:11;18.50;55.90
44461;DHT22;30162;53.642;10.640;2023-04-28T13:26:38;18.30;53.80
44461;DHT22;30162;53.642;10.640;2023-04-28T13:29:03;18.70;55.10
44461;DHT22;30162;53.642;10.640;2023-04-28T13:31:29;18.60;55.10
44461;DHT22;30162;53.642;10.640;2023-04-28T13:33:55;18.70;54.90
44461;DHT22;30162;53.642;10.640;2023-04-28T13:36:21;19.00;55.60
44461;DHT22;30162;53.642;10.640;2023-04-28T13:38:48;19.20;54.60
44461;DHT22;30162;53.642;10.640;2023-04-28T13:41:17;19.00;54.20
44461;DHT22;30162;53.642;10.640;2023-04-28T13:43:43;18.40;54.40
44461;DHT22;30162;53.642;10.640;2023-04-28T13:46:09;18.20;55.20
44461;DHT22;30162;53.642;10.640;2023-04-28T13:48:35;17.70;55.60
44461;DHT22;30162;53.642;10.640;2023-04-28T13:51:02;18.10;56.30
44461;DHT22;30162;53.642;10.640;2023-04-28T13:53:28;18.50;55.70
44461;DHT22;30162;53.642;10.640;2023-04-28T13:55:54;18.60;55.20
44461;DHT22;30162;53.642;10.640;2023-04-28T13:58:23;18.80;55.10
44461;DHT22;30162;53.642;10.640;2023-04-28T14:00:49;19.20;55.10
44461;DHT22;30162;53.642;10.640;2023-04-28T14:03:14;19.30;56.00
44461;DHT22;30162;53.642;10.640;2023-04-28T14:05:40;19.20;54.90
44461;DHT22;30162;53.642;10.640;2023-04-28T14:08:05;18.80;55.00
44461;DHT22;30162;53.642;10.640;2023-04-28T14:10:33;18.70;55.80
44461;DHT22;30162;53.642;10.640;2023-04-28T14:12:58;18.50;55.90
44461;DHT22;30162;53.642;10.640;2023-04-28T14:15:24;18.80;55.80
44461;DHT22;30162;53.642;10.640;2023-04-28T14:17:49;18.90;56.30
44461;DHT22;30162;53.642;10.640;2023-04-28T14:20:15;18.50;55.70
44461;DHT22;30162;53.642;10.640;2023-04-28T14:22:40;18.40;55.30
44461;DHT22;30162;53.642;10.640;2023-04-28T14:25:06;18.60;56.00
44461;DHT22;30162;53.642;10.640;2023-04-28T14:27:32;18.80;56.40
44461;DHT22;30162;53.642;10.640;2023-04-28T14:29:58;18.60;55.90
44461;DHT22;30162;53.642;10.640;2023-04-28T14:32:24;18.70;56.00
44461;DHT22;30162;53.642;10.640;2023-04-28T14:34:50;18.60;55.30
44461;DHT22;30162;53.642;10.640;2023-04-28T14:37:16;18.60;55.60
44461;DHT22;30162;53.642;10.640;2023-04-28T14:39:43;19.00;56.90
44461;DHT22;30162;53.642;10.640;2023-04-28T14:42:09;19.00;55.60
44461;DHT22;30162;53.642;10.640;2023-04-28T14:44:34;18.70;56.00
44461;DHT22;30162;53.642;10.640;2023-04-28T14:47:01;18.80;55.80
44461;DHT22;30162;53.642;10.640;2023-04-28T14:49:27;18.80;55.40
44461;DHT22;30162;53.642;10.640;2023-04-28T14:51:53;19.00;55.60
44461;DHT22;30162;53.642;10.640;2023-04-28T14:54:19;18.80;56.20
44461;DHT22;30162;53.642;10.640;2023-04-28T14:56:46;19.00;56.20
44461;DHT22;30162;53.642;10.640;2023-04-28T14:59:11;18.80;55.40
44461;DHT22;30162;53.642;10.640;2023-04-28T15:01:37;18.70;56.00
44461;DHT22;30162;53.642;10.640;2023-04-28T15:04:02;18.90;56.70
44461;DHT22;30162;53.642;10.640;2023-04-28T15:06:28;18.80;58.30
44461;DHT22;30162;53.642;10.640;2023-04-28T15:08:53;18.90;58.00
44461;DHT22;30162;53.642;10.640;2023-04-28T15:11:19;19.10;57.80
44461;DHT22;30162;53.642;10.640;2023-04-28T15:13:45;19.20;57.50
44461;DHT22;30162;53.642;10.640;2023-04-28T15:16:10;19.10;56.40
44461;DHT22;30162;53.642;10.640;2023-04-28T15:18:36;18.90;55.80
44461;DHT22;30162;53.642;10.640;2023-04-28T15:21:02;18.90;56.20
44461;DHT22;30162;53.642;10.640;2023-04-28T15:23:27;18.70;56.50
44461;DHT22;30162;53.642;10.640;2023-04-28T15:25:53;18.90;56.10
44461;DHT22;30162;53.642;10.640;2023-04-28T15:28:19;18.80;56.70
44461;DHT22;30162;53.642;10.640;2023-04-28T15:30:44;18.30;56.70
44461;DHT22;30162;53.642;10.640;2023-04-28T15:33:10;18.30;57.10
44461;DHT22;30162;53.642;10.640;2023-04-28T15:35:42;18.50;57.00
44461;DHT22;30162;53.642;10.640;2023-04-28T15:38:08;18.70;57.30
44461;DHT22;30162;53.642;10.640;2023-04-28T15:40:37;18.80;56.50
44461;DHT22;30162;53.642;10.640;2023-04-28T15:43:02;18.60;55.60
44461;DHT22;30162;53.642;10.640;2023-04-28T15:45:28;18.00;56.60
44461;DHT22;30162;53.642;10.640;2023-04-28T15:47:53;18.40;57.50
44461;DHT22;30162;53.642;10.640;2023-04-28T15:50:20;18.70;56.70